This is the latest recevied weather packets stored in our database for station/object T10BNorth. If no packets are shown the sender has not sent any weather packets the latest 1 day(s).
| Time | Temp. | Humidity | Pressure | Rain* | Wind** | Luminosity | Snow |
|---|---|---|---|---|---|---|---|
| 1777993192 | 20° C | 59% | 1006.2 hPa | 0 mm | 0.89 m/s, 162° | 907 W/m² | - |
| 1777993130 | 20° C | 59% | 1006.3 hPa | 0 mm | 0.89 m/s, 130° | 907 W/m² | - |
| 1777993070 | 20° C | 59% | 1006.3 hPa | 0 mm | 0.89 m/s, 182° | 870 W/m² | - |
| 1777992996 | 20° C | 59% | 1006.3 hPa | 0 mm | 0.89 m/s, 215° | 858 W/m² | - |
| 1777992935 | 19.44° C | 62% | 1006.3 hPa | 0 mm | 0.89 m/s, 299° | 849 W/m² | - |
| 1777992878 | 19.44° C | 59% | 1006.3 hPa | 0 mm | 0.89 m/s, 117° | 842 W/m² | - |
| 1777992814 | 19.44° C | 58% | 1006.4 hPa | 0 mm | 0.89 m/s, 69° | 856 W/m² | - |
| 1777992756 | 19.44° C | 61% | 1006.4 hPa | 0 mm | 0.89 m/s, 257° | 800 W/m² | - |
| 1777992692 | 19.44° C | 59% | 1006.4 hPa | 0 mm | 0.89 m/s, 119° | 805 W/m² | - |
| 1777992628 | 19.44° C | 59% | 1006.4 hPa | 0 mm | 0.89 m/s, 124° | 816 W/m² | - |
| 1777992568 | 18.89° C | 59% | 1006.4 hPa | 0 mm | 0.89 m/s, 350° | 793 W/m² | - |
| 1777992510 | 18.89° C | 59% | 1006.4 hPa | 0 mm | 0.89 m/s, 316° | 796 W/m² | - |
| 1777992449 | 18.89° C | 59% | 1006.4 hPa | 0 mm | 0.89 m/s, 173° | 809 W/m² | - |
| 1777992383 | 18.89° C | 60% | 1006.4 hPa | 0 mm | 0.89 m/s, 163° | 810 W/m² | - |
| 1777992322 | 18.89° C | 61% | 1006.4 hPa | 0 mm | 0.89 m/s, 227° | 754 W/m² | - |
| 1777992264 | 18.89° C | 61% | 1006.4 hPa | 0 mm | 0.89 m/s, 142° | 729 W/m² | - |
| 1777992202 | 18.89° C | 59% | 1006.4 hPa | 0 mm | 0.89 m/s, 234° | 721 W/m² | - |
| 1777992143 | 18.89° C | 60% | 1006.4 hPa | 0 mm | 0.89 m/s, 150° | 712 W/m² | - |
| 1777992072 | 18.89° C | 64% | 1006.4 hPa | 0 mm | 1.34 m/s, 171° | 724 W/m² | - |
| 1777992012 | 18.33° C | 62% | 1006.4 hPa | 0 mm | 1.34 m/s, 120° | 729 W/m² | - |
| 1777991954 | 18.33° C | 61% | 1006.4 hPa | 0 mm | 1.34 m/s, 121° | 756 W/m² | - |
| 1777991893 | 18.33° C | 60% | 1006.4 hPa | 0 mm | 1.34 m/s, 207° | 705 W/m² | - |
| 1777991834 | 18.33° C | 60% | 1006.4 hPa | 0 mm | 1.34 m/s, 244° | 701 W/m² | - |
| 1777991769 | 18.33° C | 62% | 1006.4 hPa | 0 mm | 1.34 m/s, 153° | 729 W/m² | - |
| 1777991708 | 18.33° C | 63% | 1006.4 hPa | 0 mm | 1.34 m/s, 163° | 677 W/m² | - |
* Rain latest hour (hover to see other rain measurements)
** Current wind speed in m/s (hover to see current wind gust speed)